sensor_id;sensor_type;location;lat;lon;timestamp;pressure;altitude;pressure_sealevel;temperature;humidity
80202;BME280;69521;54.454;9.928;2024-03-02T00:00:14;100428.28;;;7.47;88.33
80202;BME280;69521;54.454;9.928;2024-03-02T00:02:47;100421.91;;;7.59;88.26
80202;BME280;69521;54.454;9.928;2024-03-02T00:05:14;100425.41;;;7.60;88.04
80202;BME280;69521;54.454;9.928;2024-03-02T00:07:44;100425.28;;;7.61;87.66
80202;BME280;69521;54.454;9.928;2024-03-02T00:10:11;100420.06;;;7.60;87.74
80202;BME280;69521;54.454;9.928;2024-03-02T00:12:39;100421.50;;;7.64;87.89
80202;BME280;69521;54.454;9.928;2024-03-02T00:17:55;100414.25;;;7.55;88.28
80202;BME280;69521;54.454;9.928;2024-03-02T00:20:24;100418.63;;;7.56;88.50
80202;BME280;69521;54.454;9.928;2024-03-02T00:22:56;100409.44;;;7.49;88.80
80202;BME280;69521;54.454;9.928;2024-03-02T00:25:25;100403.09;;;7.50;88.43
80202;BME280;69521;54.454;9.928;2024-03-02T00:27:50;100397.47;;;7.53;88.32
80202;BME280;69521;54.454;9.928;2024-03-02T00:33:23;100395.47;;;7.45;89.65
80202;BME280;69521;54.454;9.928;2024-03-02T00:35:51;100395.31;;;7.47;89.50
80202;BME280;69521;54.454;9.928;2024-03-02T00:38:16;100392.38;;;7.50;89.52
80202;BME280;69521;54.454;9.928;2024-03-02T00:40:42;100386.91;;;7.51;89.68
80202;BME280;69521;54.454;9.928;2024-03-02T00:45:58;100382.09;;;7.45;89.85
80202;BME280;69521;54.454;9.928;2024-03-02T00:48:24;100386.31;;;7.48;89.53
80202;BME280;69521;54.454;9.928;2024-03-02T00:50:52;100388.16;;;7.47;89.26
80202;BME280;69521;54.454;9.928;2024-03-02T00:53:20;100379.53;;;7.44;89.77
80202;BME280;69521;54.454;9.928;2024-03-02T00:55:48;100375.16;;;7.43;89.43
80202;BME280;69521;54.454;9.928;2024-03-02T00:58:14;100382.47;;;7.41;89.25
80202;BME280;69521;54.454;9.928;2024-03-02T01:00:39;100366.28;;;7.42;89.44
80202;BME280;69521;54.454;9.928;2024-03-02T01:03:04;100376.66;;;7.35;89.72
80202;BME280;69521;54.454;9.928;2024-03-02T01:05:30;100369.63;;;7.34;90.38
80202;BME280;69521;54.454;9.928;2024-03-02T01:07:55;100371.44;;;7.34;89.80
80202;BME280;69521;54.454;9.928;2024-03-02T01:10:21;100371.31;;;7.35;90.46
80202;BME280;69521;54.454;9.928;2024-03-02T01:12:46;100369.75;;;7.33;89.99
80202;BME280;69521;54.454;9.928;2024-03-02T01:15:11;100372.81;;;7.28;90.49
80202;BME280;69521;54.454;9.928;2024-03-02T01:17:37;100374.66;;;7.28;90.32
80202;BME280;69521;54.454;9.928;2024-03-02T01:20:03;100371.13;;;7.27;90.84
80202;BME280;69521;54.454;9.928;2024-03-02T01:22:29;100367.47;;;7.28;91.01
80202;BME280;69521;54.454;9.928;2024-03-02T01:24:54;100370.72;;;7.32;90.76
80202;BME280;69521;54.454;9.928;2024-03-02T01:27:20;100365.69;;;7.39;90.68
80202;BME280;69521;54.454;9.928;2024-03-02T01:29:45;100365.25;;;7.33;89.84
80202;BME280;69521;54.454;9.928;2024-03-02T01:32:11;100367.91;;;7.33;90.76
80202;BME280;69521;54.454;9.928;2024-03-02T01:34:36;100362.13;;;7.28;91.16
80202;BME280;69521;54.454;9.928;2024-03-02T01:37:02;100363.22;;;7.26;91.22
80202;BME280;69521;54.454;9.928;2024-03-02T01:39:27;100365.78;;;7.27;91.34
80202;BME280;69521;54.454;9.928;2024-03-02T01:41:52;100363.81;;;7.29;91.04
80202;BME280;69521;54.454;9.928;2024-03-02T01:44:17;100371.97;;;7.28;91.32
80202;BME280;69521;54.454;9.928;2024-03-02T01:46:43;100358.28;;;7.21;92.21
80202;BME280;69521;54.454;9.928;2024-03-02T01:49:08;100371.13;;;7.27;91.70
80202;BME280;69521;54.454;9.928;2024-03-02T01:51:33;100365.78;;;7.27;92.04
80202;BME280;69521;54.454;9.928;2024-03-02T01:53:59;100373.47;;;7.21;92.29
80202;BME280;69521;54.454;9.928;2024-03-02T01:56:24;100360.50;;;7.16;92.90
80202;BME280;69521;54.454;9.928;2024-03-02T01:58:50;100363.41;;;7.13;93.46
80202;BME280;69521;54.454;9.928;2024-03-02T02:01:15;100371.69;;;7.10;94.02
80202;BME280;69521;54.454;9.928;2024-03-02T02:03:41;100363.22;;;7.05;93.34
80202;BME280;69521;54.454;9.928;2024-03-02T02:06:07;100369.41;;;7.06;93.62
80202;BME280;69521;54.454;9.928;2024-03-02T02:08:33;100375.88;;;7.03;94.08
80202;BME280;69521;54.454;9.928;2024-03-02T02:10:58;100370.91;;;6.98;94.39
80202;BME280;69521;54.454;9.928;2024-03-02T02:13:23;100367.38;;;6.98;94.67
80202;BME280;69521;54.454;9.928;2024-03-02T02:15:49;100365.56;;;6.98;95.40
80202;BME280;69521;54.454;9.928;2024-03-02T02:18:15;100372.16;;;6.94;95.34
80202;BME280;69521;54.454;9.928;2024-03-02T02:20:40;100372.22;;;7.04;95.65
80202;BME280;69521;54.454;9.928;2024-03-02T02:23:06;100372.75;;;6.98;95.30
80202;BME280;69521;54.454;9.928;2024-03-02T02:25:33;100371.28;;;6.94;95.23
80202;BME280;69521;54.454;9.928;2024-03-02T02:27:58;100375.16;;;6.90;96.32
80202;BME280;69521;54.454;9.928;2024-03-02T02:30:28;100373.00;;;6.95;95.88
80202;BME280;69521;54.454;9.928;2024-03-02T02:32:54;100371.16;;;6.95;95.80
80202;BME280;69521;54.454;9.928;2024-03-02T02:35:19;100360.59;;;6.94;96.65
80202;BME280;69521;54.454;9.928;2024-03-02T02:37:48;100353.78;;;6.90;97.13
80202;BME280;69521;54.454;9.928;2024-03-02T02:40:14;100356.19;;;6.93;97.25
80202;BME280;69521;54.454;9.928;2024-03-02T02:42:40;100353.78;;;6.90;97.23
80202;BME280;69521;54.454;9.928;2024-03-02T02:45:06;100353.06;;;6.88;97.76
80202;BME280;69521;54.454;9.928;2024-03-02T02:47:32;100353.44;;;6.94;96.90
80202;BME280;69521;54.454;9.928;2024-03-02T02:50:00;100350.38;;;6.88;97.54
80202;BME280;69521;54.454;9.928;2024-03-02T02:52:31;100355.72;;;6.88;98.05
80202;BME280;69521;54.454;9.928;2024-03-02T02:54:58;100351.75;;;6.82;98.10
80202;BME280;69521;54.454;9.928;2024-03-02T02:57:23;100353.06;;;6.88;97.55
80202;BME280;69521;54.454;9.928;2024-03-02T02:59:48;100353.06;;;6.88;98.11
80202;BME280;69521;54.454;9.928;2024-03-02T03:02:14;100348.56;;;6.88;97.59
80202;BME280;69521;54.454;9.928;2024-03-02T03:04:40;100353.31;;;6.85;97.87
80202;BME280;69521;54.454;9.928;2024-03-02T03:07:05;100343.13;;;6.79;98.05
80202;BME280;69521;54.454;9.928;2024-03-02T03:09:30;100349.94;;;6.83;97.83
80202;BME280;69521;54.454;9.928;2024-03-02T03:11:56;100348.94;;;6.84;98.76
80202;BME280;69521;54.454;9.928;2024-03-02T03:14:21;100345.56;;;6.82;98.16
80202;BME280;69521;54.454;9.928;2024-03-02T03:16:46;100337.66;;;6.80;98.52
80202;BME280;69521;54.454;9.928;2024-03-02T03:19:13;100349.94;;;6.83;98.08
80202;BME280;69521;54.454;9.928;2024-03-02T03:21:38;100344.44;;;6.84;97.88
80202;BME280;69521;54.454;9.928;2024-03-02T03:24:04;100344.56;;;6.83;98.15
80202;BME280;69521;54.454;9.928;2024-03-02T03:26:29;100348.50;;;6.79;98.41
80202;BME280;69521;54.454;9.928;2024-03-02T03:28:55;100343.28;;;6.77;98.64
80202;BME280;69521;54.454;9.928;2024-03-02T03:31:20;100347.03;;;6.75;98.28
80202;BME280;69521;54.454;9.928;2024-03-02T03:33:45;100350.69;;;6.74;98.50
80202;BME280;69521;54.454;9.928;2024-03-02T03:36:11;100351.16;;;6.79;98.23
80202;BME280;69521;54.454;9.928;2024-03-02T03:38:36;100356.50;;;6.79;97.75
80202;BME280;69521;54.454;9.928;2024-03-02T03:41:01;100347.63;;;6.78;97.87
80202;BME280;69521;54.454;9.928;2024-03-02T03:43:27;100355.19;;;6.73;98.30
80202;BME280;69521;54.454;9.928;2024-03-02T03:45:52;100352.13;;;6.78;97.92
80202;BME280;69521;54.454;9.928;2024-03-02T03:48:17;100352.53;;;6.73;98.30
80202;BME280;69521;54.454;9.928;2024-03-02T03:50:43;100351.66;;;6.72;97.78
80202;BME280;69521;54.454;9.928;2024-03-02T03:53:09;100352.78;;;6.70;98.47
80202;BME280;69521;54.454;9.928;2024-03-02T03:55:34;100346.31;;;6.72;98.58
80202;BME280;69521;54.454;9.928;2024-03-02T03:58:00;100351.94;;;6.69;98.05
80202;BME280;69521;54.454;9.928;2024-03-02T04:00:25;100348.53;;;6.67;98.40
80202;BME280;69521;54.454;9.928;2024-03-02T04:02:51;100349.75;;;6.63;99.68
80202;BME280;69521;54.454;9.928;2024-03-02T04:05:16;100351.25;;;6.56;99.63
80202;BME280;69521;54.454;9.928;2024-03-02T04:07:41;100351.50;;;6.53;100.00
80202;BME280;69521;54.454;9.928;2024-03-02T04:10:09;100350.66;;;6.53;99.63
80202;BME280;69521;54.454;9.928;2024-03-02T04:12:36;100362.44;;;6.50;100.00
80202;BME280;69521;54.454;9.928;2024-03-02T04:15:05;100358.19;;;6.48;100.00
80202;BME280;69521;54.454;9.928;2024-03-02T04:17:32;100357.59;;;6.44;100.00
80202;BME280;69521;54.454;9.928;2024-03-02T04:19:58;100359.28;;;6.45;100.00
80202;BME280;69521;54.454;9.928;2024-03-02T04:22:24;100370.59;;;6.37;100.00
80202;BME280;69521;54.454;9.928;2024-03-02T04:24:49;100356.66;;;6.34;100.00
80202;BME280;69521;54.454;9.928;2024-03-02T04:27:14;100367.47;;;6.32;100.00
80202;BME280;69521;54.454;9.928;2024-03-02T04:29:40;100365.88;;;6.30;100.00
80202;BME280;69521;54.454;9.928;2024-03-02T04:32:05;100363.47;;;6.27;100.00
80202;BME280;69521;54.454;9.928;2024-03-02T04:34:30;100365.16;;;6.28;100.00
80202;BME280;69521;54.454;9.928;2024-03-02T04:36:56;100359.34;;;6.23;100.00
80202;BME280;69521;54.454;9.928;2024-03-02T04:39:21;100363.00;;;6.22;100.00
80202;BME280;69521;54.454;9.928;2024-03-02T04:41:46;100363.00;;;6.22;100.00
80202;BME280;69521;54.454;9.928;2024-03-02T04:44:13;100356.94;;;6.20;100.00
80202;BME280;69521;54.454;9.928;2024-03-02T04:46:38;100364.09;;;6.19;100.00
80202;BME280;69521;54.454;9.928;2024-03-02T04:49:03;100360.56;;;6.19;100.00
80202;BME280;69521;54.454;9.928;2024-03-02T04:51:28;100355.22;;;6.19;100.00
80202;BME280;69521;54.454;9.928;2024-03-02T04:53:54;100359.47;;;6.21;100.00
80202;BME280;69521;54.454;9.928;2024-03-02T04:56:19;100361.53;;;6.18;100.00
80202;BME280;69521;54.454;9.928;2024-03-02T04:59:04;100361.41;;;6.19;100.00
80202;BME280;69521;54.454;9.928;2024-03-02T05:01:29;100357.19;;;6.17;100.00
80202;BME280;69521;54.454;9.928;2024-03-02T05:03:54;100358.38;;;6.13;100.00
80202;BME280;69521;54.454;9.928;2024-03-02T05:06:20;100343.47;;;6.10;100.00
80202;BME280;69521;54.454;9.928;2024-03-02T05:08:45;100351.09;;;6.15;100.00
80202;BME280;69521;54.454;9.928;2024-03-02T05:11:10;100342.00;;;6.17;100.00
80202;BME280;69521;54.454;9.928;2024-03-02T05:14:05;100347.09;;;6.20;100.00
80202;BME280;69521;54.454;9.928;2024-03-02T05:16:35;100334.59;;;6.21;100.00
80202;BME280;69521;54.454;9.928;2024-03-02T05:19:00;100337.25;;;6.21;100.00
80202;BME280;69521;54.454;9.928;2024-03-02T05:21:26;100334.34;;;6.24;100.00
80202;BME280;69521;54.454;9.928;2024-03-02T05:23:51;100332.28;;;6.16;100.00
80202;BME280;69521;54.454;9.928;2024-03-02T05:26:16;100326.09;;;6.16;100.00
80202;BME280;69521;54.454;9.928;2024-03-02T05:28:42;100332.41;;;6.15;100.00
80202;BME280;69521;54.454;9.928;2024-03-02T05:31:10;100327.53;;;6.20;100.00
80202;BME280;69521;54.454;9.928;2024-03-02T05:33:39;100336.78;;;6.16;100.00
80202;BME280;69521;54.454;9.928;2024-03-02T05:36:05;100338.72;;;6.14;100.00
80202;BME280;69521;54.454;9.928;2024-03-02T05:38:31;100339.94;;;6.10;100.00
80202;BME280;69521;54.454;9.928;2024-03-02T05:40:57;100325.13;;;6.05;100.00
80202;BME280;69521;54.454;9.928;2024-03-02T05:43:22;100328.16;;;6.01;100.00
80202;BME280;69521;54.454;9.928;2024-03-02T05:45:47;100321.97;;;6.00;100.00
80202;BME280;69521;54.454;9.928;2024-03-02T05:48:13;100332.16;;;6.06;100.00
80202;BME280;69521;54.454;9.928;2024-03-02T05:50:38;100343.09;;;6.03;100.00
80202;BME280;69521;54.454;9.928;2024-03-02T05:53:03;100355.25;;;6.07;100.00
80202;BME280;69521;54.454;9.928;2024-03-02T05:55:29;100354.28;;;6.09;100.00
80202;BME280;69521;54.454;9.928;2024-03-02T05:57:54;100364.19;;;6.06;100.00
80202;BME280;69521;54.454;9.928;2024-03-02T06:00:25;100358.84;;;6.06;100.00
80202;BME280;69521;54.454;9.928;2024-03-02T06:02:51;100351.59;;;6.09;99.98
80202;BME280;69521;54.454;9.928;2024-03-02T06:05:16;100355.47;;;6.16;100.00
80202;BME280;69521;54.454;9.928;2024-03-02T06:07:43;100348.09;;;6.08;99.98
80202;BME280;69521;54.454;9.928;2024-03-02T06:10:08;100347.69;;;6.01;99.94
80202;BME280;69521;54.454;9.928;2024-03-02T06:12:34;100343.09;;;6.03;100.00
80202;BME280;69521;54.454;9.928;2024-03-02T06:14:59;100348.06;;;5.97;100.00
80202;BME280;69521;54.454;9.928;2024-03-02T06:17:26;100356.81;;;5.99;100.00
80202;BME280;69521;54.454;9.928;2024-03-02T06:19:51;100361.53;;;6.06;99.64
80202;BME280;69521;54.454;9.928;2024-03-02T06:22:17;100364.22;;;5.95;99.43
80202;BME280;69521;54.454;9.928;2024-03-02T06:24:44;100364.44;;;6.03;99.21
80202;BME280;69521;54.454;9.928;2024-03-02T06:27:09;100365.53;;;6.01;99.18
80202;BME280;69521;54.454;9.928;2024-03-02T06:29:34;100362.13;;;5.99;99.45
80202;BME280;69521;54.454;9.928;2024-03-02T06:32:00;100361.28;;;5.98;99.60
80202;BME280;69521;54.454;9.928;2024-03-02T06:34:25;100355.22;;;5.96;99.26
80202;BME280;69521;54.454;9.928;2024-03-02T06:36:51;100360.69;;;5.95;99.25
80202;BME280;69521;54.454;9.928;2024-03-02T06:39:16;100349.75;;;5.98;99.86
80202;BME280;69521;54.454;9.928;2024-03-02T06:41:41;100357.66;;;5.99;99.35
80202;BME280;69521;54.454;9.928;2024-03-02T06:44:12;100357.41;;;6.02;98.90
80202;BME280;69521;54.454;9.928;2024-03-02T06:46:37;100356.56;;;6.02;99.36
80202;BME280;69521;54.454;9.928;2024-03-02T06:49:03;100353.50;;;6.06;99.05
80202;BME280;69521;54.454;9.928;2024-03-02T06:51:29;100357.16;;;6.05;99.09
80202;BME280;69521;54.454;9.928;2024-03-02T06:53:54;100353.75;;;6.03;99.05
80202;BME280;69521;54.454;9.928;2024-03-02T06:56:20;100351.59;;;6.09;98.92
80202;BME280;69521;54.454;9.928;2024-03-02T06:58:45;100362.03;;;6.12;98.80
80202;BME280;69521;54.454;9.928;2024-03-02T07:01:11;100356.94;;;6.09;99.07
80202;BME280;69521;54.454;9.928;2024-03-02T07:03:36;100363.72;;;6.13;98.71
80202;BME280;69521;54.454;9.928;2024-03-02T07:06:02;100365.19;;;6.17;98.48
80202;BME280;69521;54.454;9.928;2024-03-02T07:08:28;100354.25;;;6.20;98.00
80202;BME280;69521;54.454;9.928;2024-03-02T07:10:53;100345.28;;;6.21;98.36
80202;BME280;69521;54.454;9.928;2024-03-02T07:13:18;100336.53;;;6.19;98.43
80202;BME280;69521;54.454;9.928;2024-03-02T07:15:44;100350.84;;;6.18;97.99
80202;BME280;69521;54.454;9.928;2024-03-02T07:18:35;100344.16;;;6.23;98.17
80202;BME280;69521;54.454;9.928;2024-03-02T07:21:06;100348.53;;;6.24;98.55
80202;BME280;69521;54.454;9.928;2024-03-02T07:23:32;100346.38;;;6.18;98.14
80202;BME280;69521;54.454;9.928;2024-03-02T07:25:57;100346.97;;;6.22;97.61
80202;BME280;69521;54.454;9.928;2024-03-02T07:28:25;100356.78;;;6.32;96.87
80202;BME280;69521;54.454;9.928;2024-03-02T07:31:01;100360.66;;;6.39;95.95
80202;BME280;69521;54.454;9.928;2024-03-02T07:33:27;100365.25;;;6.49;96.70
80202;BME280;69521;54.454;9.928;2024-03-02T07:35:56;100364.38;;;6.48;96.08
80202;BME280;69521;54.454;9.928;2024-03-02T07:38:22;100376.63;;;6.62;95.86
80202;BME280;69521;54.454;9.928;2024-03-02T07:40:49;100373.94;;;6.62;96.09
80202;BME280;69521;54.454;9.928;2024-03-02T07:43:18;100371.00;;;6.65;95.92
80202;BME280;69521;54.454;9.928;2024-03-02T07:45:47;100363.72;;;6.67;96.03
80202;BME280;69521;54.454;9.928;2024-03-02T07:48:13;100361.38;;;6.74;96.35
80202;BME280;69521;54.454;9.928;2024-03-02T07:50:39;100353.38;;;6.74;96.30
80202;BME280;69521;54.454;9.928;2024-03-02T07:53:05;100352.66;;;6.71;95.42
80202;BME280;69521;54.454;9.928;2024-03-02T07:55:30;100363.28;;;6.83;95.13
80202;BME280;69521;54.454;9.928;2024-03-02T07:58:00;100358.16;;;6.91;95.15
80202;BME280;69521;54.454;9.928;2024-03-02T08:00:25;100368.38;;;6.97;93.79
80202;BME280;69521;54.454;9.928;2024-03-02T08:02:51;100372.47;;;7.01;92.71
80202;BME280;69521;54.454;9.928;2024-03-02T08:05:17;100371.13;;;7.07;92.58
80202;BME280;69521;54.454;9.928;2024-03-02T08:07:46;100367.78;;;7.14;91.85
80202;BME280;69521;54.454;9.928;2024-03-02T08:10:12;100376.47;;;7.27;91.63
80202;BME280;69521;54.454;9.928;2024-03-02T08:12:38;100386.13;;;7.40;91.58
80202;BME280;69521;54.454;9.928;2024-03-02T08:15:03;100389.44;;;7.53;90.63
80202;BME280;69521;54.454;9.928;2024-03-02T08:17:29;100387.41;;;7.66;91.11
80202;BME280;69521;54.454;9.928;2024-03-02T08:19:55;100397.47;;;7.74;90.64
80202;BME280;69521;54.454;9.928;2024-03-02T08:22:20;100393.16;;;7.82;89.40
80202;BME280;69521;54.454;9.928;2024-03-02T08:24:46;100398.56;;;7.92;88.90
80202;BME280;69521;54.454;9.928;2024-03-02T08:27:11;100397.34;;;8.06;89.02
80202;BME280;69521;54.454;9.928;2024-03-02T08:29:37;100394.53;;;8.07;86.84
80202;BME280;69521;54.454;9.928;2024-03-02T08:32:03;100399.66;;;8.20;87.19
80202;BME280;69521;54.454;9.928;2024-03-02T08:34:29;100410.56;;;8.28;86.21
80202;BME280;69521;54.454;9.928;2024-03-02T08:36:54;100405.91;;;8.30;86.19
80202;BME280;69521;54.454;9.928;2024-03-02T08:39:19;100413.88;;;8.41;85.86
80202;BME280;69521;54.454;9.928;2024-03-02T08:41:45;100415.44;;;8.44;83.60
80202;BME280;69521;54.454;9.928;2024-03-02T08:44:12;100422.78;;;8.51;82.76
80202;BME280;69521;54.454;9.928;2024-03-02T08:46:38;100427.59;;;8.57;84.13
80202;BME280;69521;54.454;9.928;2024-03-02T08:49:04;100425.06;;;8.66;84.61
80202;BME280;69521;54.454;9.928;2024-03-02T08:51:29;100430.44;;;8.66;84.05
80202;BME280;69521;54.454;9.928;2024-03-02T08:53:55;100428.31;;;8.59;83.79
80202;BME280;69521;54.454;9.928;2024-03-02T08:56:20;100428.88;;;8.63;83.42
80202;BME280;69521;54.454;9.928;2024-03-02T08:58:46;100429.44;;;8.67;83.91
80202;BME280;69521;54.454;9.928;2024-03-02T09:01:12;100432.75;;;8.80;83.83
80202;BME280;69521;54.454;9.928;2024-03-02T09:03:37;100433.19;;;8.85;82.96
80202;BME280;69521;54.454;9.928;2024-03-02T09:06:03;100434.03;;;8.85;82.54
80202;BME280;69521;54.454;9.928;2024-03-02T09:08:29;100438.28;;;8.98;83.47
80202;BME280;69521;54.454;9.928;2024-03-02T09:10:55;100439.56;;;9.03;82.02
80202;BME280;69521;54.454;9.928;2024-03-02T09:13:21;100436.16;;;9.01;80.22
80202;BME280;69521;54.454;9.928;2024-03-02T09:15:47;100433.75;;;8.98;80.82
80202;BME280;69521;54.454;9.928;2024-03-02T09:18:12;100441.66;;;9.00;81.37
80202;BME280;69521;54.454;9.928;2024-03-02T09:20:38;100441.09;;;9.06;81.37
80202;BME280;69521;54.454;9.928;2024-03-02T09:23:03;100446.34;;;9.07;80.85
80202;BME280;69521;54.454;9.928;2024-03-02T09:25:29;100448.16;;;9.16;80.70
80202;BME280;69521;54.454;9.928;2024-03-02T09:27:54;100437.16;;;9.19;80.80
80202;BME280;69521;54.454;9.928;2024-03-02T09:30:19;100443.09;;;9.33;80.50
80202;BME280;69521;54.454;9.928;2024-03-02T09:32:45;100435.44;;;9.38;79.09
80202;BME280;69521;54.454;9.928;2024-03-02T09:35:10;100434.59;;;9.47;77.33
80202;BME280;69521;54.454;9.928;2024-03-02T09:37:37;100432.31;;;9.81;78.17
80202;BME280;69521;54.454;9.928;2024-03-02T09:40:02;100433.75;;;10.12;76.73
80202;BME280;69521;54.454;9.928;2024-03-02T09:42:29;100430.16;;;10.31;75.09
80202;BME280;69521;54.454;9.928;2024-03-02T09:44:54;100447.84;;;10.43;74.69
80202;BME280;69521;54.454;9.928;2024-03-02T09:47:20;100430.75;;;10.62;73.91
80202;BME280;69521;54.454;9.928;2024-03-02T09:49:45;100441.09;;;10.84;72.98
80202;BME280;69521;54.454;9.928;2024-03-02T09:52:11;100441.25;;;11.01;73.29
80202;BME280;69521;54.454;9.928;2024-03-02T09:54:36;100432.50;;;11.16;71.38
80202;BME280;69521;54.454;9.928;2024-03-02T09:57:02;100434.28;;;11.43;70.95
80202;BME280;69521;54.454;9.928;2024-03-02T09:59:28;100438.38;;;11.30;69.99
80202;BME280;69521;54.454;9.928;2024-03-02T10:02:01;100438.91;;;11.33;70.46
80202;BME280;69521;54.454;9.928;2024-03-02T10:04:28;100436.91;;;11.35;69.86
80202;BME280;69521;54.454;9.928;2024-03-02T10:09:36;100440.50;;;11.44;69.97
80202;BME280;69521;54.454;9.928;2024-03-02T10:12:05;100430.34;;;11.38;69.03
80202;BME280;69521;54.454;9.928;2024-03-02T10:14:30;100432.44;;;11.44;67.84
80202;BME280;69521;54.454;9.928;2024-03-02T10:17:05;100431.72;;;11.77;67.92
80202;BME280;69521;54.454;9.928;2024-03-02T10:19:33;100433.31;;;12.14;66.00
80202;BME280;69521;54.454;9.928;2024-03-02T10:22:06;100429.22;;;12.86;63.24
80202;BME280;69521;54.454;9.928;2024-03-02T10:24:44;100423.94;;;13.35;60.05
80202;BME280;69521;54.454;9.928;2024-03-02T10:27:15;100410.75;;;13.73;60.47
80202;BME280;69521;54.454;9.928;2024-03-02T10:29:41;100415.56;;;14.18;57.84
80202;BME280;69521;54.454;9.928;2024-03-02T10:32:10;100414.72;;;14.17;56.67
80202;BME280;69521;54.454;9.928;2024-03-02T10:34:36;100433.28;;;14.28;57.25
80202;BME280;69521;54.454;9.928;2024-03-02T10:37:02;100421.16;;;14.63;58.07
80202;BME280;69521;54.454;9.928;2024-03-02T10:39:28;100417.19;;;15.13;56.09
80202;BME280;69521;54.454;9.928;2024-03-02T10:41:55;100423.47;;;15.51;53.41
80202;BME280;69521;54.454;9.928;2024-03-02T10:44:22;100420.81;;;15.74;53.24
80202;BME280;69521;54.454;9.928;2024-03-02T10:46:49;100424.94;;;15.39;52.26
80202;BME280;69521;54.454;9.928;2024-03-02T10:49:16;100429.00;;;15.66;56.81
80202;BME280;69521;54.454;9.928;2024-03-02T10:51:42;100433.28;;;15.52;53.52
80202;BME280;69521;54.454;9.928;2024-03-02T10:54:07;100429.13;;;15.73;53.67
80202;BME280;69521;54.454;9.928;2024-03-02T10:56:38;100429.47;;;15.70;53.94
80202;BME280;69521;54.454;9.928;2024-03-02T11:01:55;100428.78;;;16.05;51.32
80202;BME280;69521;54.454;9.928;2024-03-02T11:04:21;100429.91;;;15.96;53.21
80202;BME280;69521;54.454;9.928;2024-03-02T11:06:50;100430.41;;;15.54;54.23
80202;BME280;69521;54.454;9.928;2024-03-02T11:09:18;100430.66;;;15.21;53.67
80202;BME280;69521;54.454;9.928;2024-03-02T11:11:49;100433.34;;;14.98;55.87
80202;BME280;69521;54.454;9.928;2024-03-02T11:14:21;100440.72;;;14.43;57.43
80202;BME280;69521;54.454;9.928;2024-03-02T11:16:49;100440.41;;;14.21;55.64
80202;BME280;69521;54.454;9.928;2024-03-02T11:19:16;100438.28;;;14.56;57.78
80202;BME280;69521;54.454;9.928;2024-03-02T11:21:42;100434.44;;;15.12;56.09
80202;BME280;69521;54.454;9.928;2024-03-02T11:26:52;100445.22;;;15.20;53.30
80202;BME280;69521;54.454;9.928;2024-03-02T11:32:01;100441.72;;;15.12;53.47
80202;BME280;69521;54.454;9.928;2024-03-02T11:34:33;100439.47;;;14.53;55.28
80202;BME280;69521;54.454;9.928;2024-03-02T11:37:03;100447.19;;;14.17;56.74
80202;BME280;69521;54.454;9.928;2024-03-02T11:39:29;100450.25;;;14.06;57.04
80202;BME280;69521;54.454;9.928;2024-03-02T11:41:56;100460.06;;;14.07;56.74
80202;BME280;69521;54.454;9.928;2024-03-02T11:44:22;100454.56;;;14.48;58.09
80202;BME280;69521;54.454;9.928;2024-03-02T11:46:58;100454.50;;;14.64;56.41
80202;BME280;69521;54.454;9.928;2024-03-02T11:50:00;100461.09;;;14.61;55.91
80202;BME280;69521;54.454;9.928;2024-03-02T11:52:25;100460.50;;;14.35;59.30
80202;BME280;69521;54.454;9.928;2024-03-02T11:54:53;100459.03;;;14.16;57.20
80202;BME280;69521;54.454;9.928;2024-03-02T11:57:19;100451.97;;;13.91;58.12
80202;BME280;69521;54.454;9.928;2024-03-02T11:59:48;100459.06;;;13.51;59.02
80202;BME280;69521;54.454;9.928;2024-03-02T12:02:18;100459.53;;;13.22;61.31
80202;BME280;69521;54.454;9.928;2024-03-02T12:04:44;100470.69;;;13.35;61.28
80202;BME280;69521;54.454;9.928;2024-03-02T12:07:11;100472.72;;;13.25;60.61
80202;BME280;69521;54.454;9.928;2024-03-02T12:09:37;100464.38;;;13.11;60.60
80202;BME280;69521;54.454;9.928;2024-03-02T12:12:04;100470.91;;;13.00;61.94
80202;BME280;69521;54.454;9.928;2024-03-02T12:14:31;100474.59;;;12.91;63.13
80202;BME280;69521;54.454;9.928;2024-03-02T12:16:57;100474.56;;;12.83;63.22
80202;BME280;69521;54.454;9.928;2024-03-02T12:19:24;100468.69;;;12.45;64.04
80202;BME280;69521;54.454;9.928;2024-03-02T12:21:49;100477.53;;;12.29;64.63
80202;BME280;69521;54.454;9.928;2024-03-02T12:24:15;100469.66;;;12.10;64.95
80202;BME280;69521;54.454;9.928;2024-03-02T12:26:40;100476.72;;;12.11;67.32
80202;BME280;69521;54.454;9.928;2024-03-02T12:29:06;100475.50;;;12.05;66.10
80202;BME280;69521;54.454;9.928;2024-03-02T12:31:32;100471.66;;;12.08;66.71
80202;BME280;69521;54.454;9.928;2024-03-02T12:33:58;100475.03;;;12.10;67.96
80202;BME280;69521;54.454;9.928;2024-03-02T12:36:23;100469.44;;;12.03;65.92
80202;BME280;69521;54.454;9.928;2024-03-02T12:38:52;100463.16;;;11.95;66.00
80202;BME280;69521;54.454;9.928;2024-03-02T12:41:18;100465.84;;;11.77;67.32
80202;BME280;69521;54.454;9.928;2024-03-02T12:43:43;100460.88;;;11.82;67.89
80202;BME280;69521;54.454;9.928;2024-03-02T12:46:08;100466.47;;;11.89;69.82
80202;BME280;69521;54.454;9.928;2024-03-02T12:48:35;100459.75;;;11.93;67.59
80202;BME280;69521;54.454;9.928;2024-03-02T12:51:01;100461.09;;;11.89;68.25
80202;BME280;69521;54.454;9.928;2024-03-02T12:53:26;100456.66;;;11.79;67.52
80202;BME280;69521;54.454;9.928;2024-03-02T12:55:52;100455.78;;;11.79;69.76
80202;BME280;69521;54.454;9.928;2024-03-02T12:58:22;100459.09;;;11.73;68.86
80202;BME280;69521;54.454;9.928;2024-03-02T13:00:47;100453.47;;;11.66;69.68
80202;BME280;69521;54.454;9.928;2024-03-02T13:03:13;100462.41;;;11.67;70.63
80202;BME280;69521;54.454;9.928;2024-03-02T13:05:39;100457.66;;;11.61;69.68
80202;BME280;69521;54.454;9.928;2024-03-02T13:08:06;100459.56;;;11.68;70.06
80202;BME280;69521;54.454;9.928;2024-03-02T13:10:32;100457.41;;;11.72;71.23